createdAt,value
2022-09-30T00:02:17.911Z,40.53
2022-09-30T00:04:53.196Z,39.27
2022-09-30T00:07:30.946Z,36.35
2022-09-30T00:10:07.627Z,37.15
2022-09-30T00:12:49.513Z,39.53
2022-09-30T00:15:24.882Z,42.58
2022-09-30T00:17:57.898Z,39.78
2022-09-30T00:20:35.479Z,43.28
2022-09-30T00:23:19.532Z,45.38
2022-09-30T00:26:01.278Z,48.80
2022-09-30T00:28:32.378Z,58.03
2022-09-30T00:31:08.347Z,56.10
2022-09-30T00:33:36.002Z,59.95
2022-09-30T00:36:17.414Z,66.88
2022-09-30T00:38:52.688Z,68.40
2022-09-30T00:41:19.980Z,65.97
2022-09-30T00:43:53.971Z,74.70
2022-09-30T00:46:45.101Z,78.38
2022-09-30T00:49:28.624Z,79.72
2022-09-30T00:51:59.859Z,80.57
2022-09-30T00:54:37.690Z,78.68
2022-09-30T00:57:13.963Z,80.38
2022-09-30T00:59:53.587Z,72.25
2022-09-30T01:02:28.597Z,72.57
2022-09-30T01:05:04.406Z,70.45
2022-09-30T01:07:45.420Z,72.18
2022-09-30T01:10:25.497Z,65.47
2022-09-30T01:13:01.224Z,55.67
2022-09-30T01:16:13.223Z,51.15
2022-09-30T01:19:22.224Z,44.95
2022-09-30T01:22:02.226Z,43.33
2022-09-30T01:25:04.361Z,45.47
2022-09-30T01:28:01.145Z,43.35
2022-09-30T01:30:56.019Z,44.47
2022-09-30T01:33:45.729Z,43.83
2022-09-30T01:36:37.127Z,40.60
2022-09-30T01:39:40.973Z,37.38
2022-09-30T01:42:37.784Z,33.43
2022-09-30T01:45:25.144Z,38.47
2022-09-30T01:48:09.524Z,42.92
2022-09-30T01:50:42.277Z,41.55
2022-09-30T01:53:27.755Z,47.38
2022-09-30T01:56:18.049Z,49.33
2022-09-30T01:59:13.107Z,52.28
2022-09-30T02:02:09.929Z,52.80
2022-09-30T02:04:45.146Z,51.28
2022-09-30T02:07:25.280Z,52.95
2022-09-30T02:10:01.931Z,52.88
2022-09-30T02:12:39.067Z,50.53
2022-09-30T02:15:15.653Z,54.70
2022-09-30T02:17:58.401Z,55.38
2022-09-30T02:20:34.286Z,55.58
2022-09-30T02:23:10.470Z,56.05
2022-09-30T02:25:55.665Z,62.72
2022-09-30T02:28:39.620Z,65.32
2022-09-30T02:31:22.871Z,66.30
2022-09-30T02:34:24.889Z,62.17
2022-09-30T02:37:05.540Z,60.78
2022-09-30T02:39:50.554Z,60.75
2022-09-30T02:42:29.562Z,61.78
2022-09-30T02:45:10.380Z,61.72
2022-09-30T02:47:49.615Z,60.05
2022-09-30T02:50:46.164Z,56.38
2022-09-30T02:53:46.591Z,53.67
2022-09-30T02:56:41.848Z,46.92
2022-09-30T02:59:19.969Z,45.28
2022-09-30T03:02:00.825Z,47.17
2022-09-30T03:04:35.135Z,50.50
2022-09-30T03:07:12.834Z,54.58
2022-09-30T03:09:49.064Z,54.55
2022-09-30T03:12:52.629Z,51.20
2022-09-30T03:15:41.754Z,48.58
2022-09-30T03:18:46.459Z,43.25
2022-09-30T03:21:33.753Z,43.22
2022-09-30T03:24:33.360Z,44.42
2022-09-30T03:27:17.668Z,49.47
2022-09-30T03:29:55.577Z,49.03
2022-09-30T03:32:35.433Z,51.15
2022-09-30T03:35:31.648Z,52.13
2022-09-30T03:38:22.041Z,52.65
2022-09-30T03:41:13.412Z,48.90
2022-09-30T03:44:17.010Z,50.40
2022-09-30T03:47:02.523Z,49.53
2022-09-30T03:49:58.735Z,52.45
2022-09-30T03:52:37.480Z,52.05
2022-09-30T03:55:20.160Z,50.05
2022-09-30T03:57:56.108Z,52.60
2022-09-30T04:00:45.775Z,51.22
2022-09-30T04:03:24.137Z,48.40
2022-09-30T04:05:59.652Z,53.42
2022-09-30T04:08:40.759Z,49.53
2022-09-30T04:11:13.716Z,47.72
2022-09-30T04:13:49.175Z,46.50
2022-09-30T04:16:24.856Z,45.67
2022-09-30T04:18:57.349Z,45.40
2022-09-30T04:21:33.708Z,44.08
2022-09-30T04:24:15.523Z,47.35
2022-09-30T04:26:53.110Z,49.63
2022-09-30T04:29:23.339Z,41.85
2022-09-30T04:31:56.227Z,42.85
2022-09-30T04:34:40.088Z,40.92
2022-09-30T04:37:14.170Z,34.42
2022-09-30T04:39:56.910Z,39.05
2022-09-30T04:42:31.954Z,37.35
2022-09-30T04:45:02.173Z,41.42
2022-09-30T04:47:39.072Z,39.28
2022-09-30T04:50:19.355Z,37.30
2022-09-30T04:52:50.485Z,34.22
2022-09-30T04:55:24.565Z,38.08
2022-09-30T04:57:59.876Z,34.83
2022-09-30T05:00:35.321Z,34.70
2022-09-30T05:03:11.131Z,39.72
2022-09-30T05:05:47.014Z,34.55
2022-09-30T05:08:25.225Z,33.65
2022-09-30T05:11:06.318Z,30.50
2022-09-30T05:13:48.242Z,28.77
2022-09-30T05:16:24.514Z,30.58
2022-09-30T05:21:52.729Z,38.10
2022-09-30T05:24:26.049Z,43.75
2022-09-30T05:27:07.420Z,40.55
2022-09-30T05:29:37.664Z,39.85
2022-09-30T05:32:10.277Z,38.75
2022-09-30T05:34:49.220Z,44.05
2022-09-30T05:37:34.970Z,39.55
2022-09-30T05:40:08.669Z,40.03
2022-09-30T05:45:24.936Z,37.35
2022-09-30T05:48:09.710Z,41.72
2022-09-30T05:50:39.932Z,43.88
2022-09-30T05:53:16.502Z,44.22
2022-09-30T05:55:50.622Z,42.05
2022-09-30T05:58:21.423Z,38.55
2022-09-30T06:01:13.051Z,36.97
2022-09-30T06:03:58.227Z,38.50
2022-09-30T06:06:28.179Z,41.08
2022-09-30T06:09:05.704Z,35.72
2022-09-30T06:11:43.641Z,37.22
2022-09-30T06:14:25.543Z,38.58
2022-09-30T06:17:07.386Z,38.55
2022-09-30T06:19:50.150Z,39.15
2022-09-30T06:22:21.238Z,41.85
2022-09-30T06:24:55.290Z,41.90
2022-09-30T06:27:23.204Z,40.08
2022-09-30T06:30:01.332Z,45.17
2022-09-30T06:32:32.949Z,40.45
2022-09-30T06:35:19.165Z,45.65
2022-09-30T06:38:09.148Z,41.95
2022-09-30T06:40:41.144Z,43.50
2022-09-30T06:43:17.003Z,48.17
2022-09-30T06:45:46.532Z,48.72
2022-09-30T06:48:34.328Z,46.15
2022-09-30T06:51:22.952Z,48.95
2022-09-30T06:54:02.678Z,49.10
2022-09-30T06:56:36.746Z,47.28
2022-09-30T06:59:08.551Z,48.05
2022-09-30T07:01:35.565Z,49.97
2022-09-30T07:04:08.141Z,47.65
2022-09-30T07:06:41.982Z,46.78
2022-09-30T07:09:22.784Z,46.75
2022-09-30T07:11:54.227Z,45.47
2022-09-30T07:14:29.718Z,45.88
2022-09-30T07:16:58.455Z,45.95
2022-09-30T07:19:35.264Z,43.05
2022-09-30T07:22:23.697Z,43.08
2022-09-30T07:25:04.794Z,40.08
2022-09-30T07:27:53.593Z,39.10
2022-09-30T07:30:28.771Z,40.20
2022-09-30T07:33:03.829Z,36.90
2022-09-30T07:35:36.558Z,36.88
2022-09-30T07:38:04.487Z,33.35
2022-09-30T07:40:31.485Z,31.95
2022-09-30T07:43:09.503Z,32.67
2022-09-30T07:45:37.913Z,31.75
2022-09-30T07:48:33.080Z,29.17
2022-09-30T07:51:03.674Z,27.35
2022-09-30T07:53:37.146Z,28.25
2022-09-30T07:56:09.597Z,29.17
2022-09-30T07:58:38.052Z,28.80
2022-09-30T08:01:10.651Z,30.10
2022-09-30T08:03:53.444Z,28.05
2022-09-30T08:06:27.131Z,24.67
2022-09-30T08:11:46.180Z,19.55
2022-09-30T08:14:23.984Z,22.67
2022-09-30T08:17:00.758Z,23.85
2022-09-30T08:19:39.427Z,22.70
2022-09-30T08:22:19.461Z,24.88
2022-09-30T08:24:51.909Z,24.70
2022-09-30T08:27:24.523Z,20.55
2022-09-30T08:30:04.831Z,20.52
2022-09-30T08:32:33.695Z,18.85
2022-09-30T08:35:17.291Z,17.55
2022-09-30T08:37:55.207Z,16.52
2022-09-30T08:40:36.859Z,16.90
2022-09-30T08:43:25.219Z,17.33
2022-09-30T08:46:12.061Z,14.88
2022-09-30T08:49:03.671Z,16.13
2022-09-30T08:51:41.366Z,16.63
2022-09-30T08:54:24.614Z,15.45
2022-09-30T08:57:00.687Z,17.45
2022-09-30T09:00:12.482Z,17.95
2022-09-30T09:03:04.124Z,19.23
2022-09-30T09:06:17.564Z,18.75
2022-09-30T09:09:23.617Z,18.27
2022-09-30T09:12:27.700Z,20.23
2022-09-30T09:15:14.448Z,20.52
2022-09-30T09:18:23.489Z,22.10
2022-09-30T09:21:15.670Z,22.00
2022-09-30T09:23:52.043Z,22.45
2022-09-30T09:26:38.565Z,22.35
2022-09-30T09:29:32.474Z,27.35
2022-09-30T09:32:17.620Z,23.33
2022-09-30T09:34:53.268Z,30.30
2022-09-30T09:37:54.450Z,27.92
2022-09-30T09:41:06.361Z,29.15
2022-09-30T09:44:14.994Z,30.30
2022-09-30T09:47:02.176Z,29.27
2022-09-30T09:49:32.311Z,32.92
2022-09-30T09:52:28.190Z,30.67
2022-09-30T09:55:05.839Z,33.83
2022-09-30T09:57:44.458Z,30.55
2022-09-30T10:00:31.889Z,25.70
2022-09-30T10:03:03.131Z,26.58
2022-09-30T10:05:44.283Z,24.35
2022-09-30T10:08:14.310Z,26.00
2022-09-30T10:10:59.376Z,23.15
2022-09-30T10:13:36.443Z,22.88
2022-09-30T10:16:15.601Z,23.65
2022-09-30T10:18:46.516Z,24.52
2022-09-30T10:21:23.401Z,23.85
2022-09-30T10:23:52.850Z,21.63
2022-09-30T10:28:56.106Z,18.77
2022-09-30T10:31:28.827Z,20.15
2022-09-30T10:34:29.509Z,17.80
2022-09-30T10:37:12.989Z,15.25
2022-09-30T10:39:43.231Z,14.27
2022-09-30T10:42:26.659Z,18.08
2022-09-30T10:45:10.230Z,10.55
2022-09-30T10:47:52.587Z,6.45
2022-09-30T10:50:27.949Z,11.57
2022-09-30T10:53:31.218Z,8.85
2022-09-30T10:56:12.962Z,4.20
2022-09-30T10:58:58.034Z,4.60
2022-09-30T11:01:35.861Z,4.03
2022-09-30T11:04:14.458Z,3.83
2022-09-30T11:06:55.466Z,3.50
2022-09-30T11:10:01.692Z,2.67
2022-09-30T11:13:02.416Z,2.83
2022-09-30T11:16:02.861Z,3.15
2022-09-30T11:18:53.541Z,2.28
2022-09-30T11:21:41.934Z,2.33
2022-09-30T11:24:38.044Z,2.83
2022-09-30T11:27:26.782Z,4.45
2022-09-30T11:30:31.210Z,3.08
2022-09-30T11:33:47.452Z,2.85
2022-09-30T11:36:44.557Z,2.53
2022-09-30T11:39:40.526Z,2.60
2022-09-30T11:42:18.056Z,3.45
2022-09-30T11:45:01.416Z,3.63
2022-09-30T11:48:00.476Z,3.65
2022-09-30T11:50:50.758Z,4.00
2022-09-30T11:53:38.770Z,3.13
2022-09-30T11:56:30.242Z,3.72
2022-09-30T11:59:26.445Z,3.50
2022-09-30T12:02:02.053Z,4.10
2022-09-30T12:04:38.924Z,3.80
2022-09-30T12:07:38.645Z,3.38
2022-09-30T12:10:23.560Z,3.38
2022-09-30T12:13:23.308Z,3.60
2022-09-30T12:16:02.519Z,3.70
2022-09-30T12:18:38.579Z,3.92
2022-09-30T12:21:54.887Z,3.50
2022-09-30T12:24:47.441Z,3.33
2022-09-30T12:27:51.492Z,4.40
2022-09-30T12:30:23.060Z,3.25
2022-09-30T12:33:12.613Z,3.38
2022-09-30T12:36:14.618Z,2.60
2022-09-30T12:39:01.200Z,3.03
2022-09-30T12:41:59.108Z,2.75
2022-09-30T12:44:30.089Z,2.30
2022-09-30T12:47:18.146Z,2.42
2022-09-30T12:49:49.455Z,2.03
2022-09-30T12:52:24.004Z,2.28
2022-09-30T12:57:58.733Z,1.98
2022-09-30T13:00:38.700Z,2.15
2022-09-30T13:03:18.461Z,2.70
2022-09-30T13:06:05.054Z,2.38
2022-09-30T13:08:52.347Z,2.10
2022-09-30T13:11:47.534Z,2.42
2022-09-30T13:14:42.949Z,2.13
2022-09-30T13:17:16.650Z,1.73
2022-09-30T13:19:56.597Z,2.38
2022-09-30T13:22:29.943Z,1.67
2022-09-30T13:25:08.939Z,2.10
2022-09-30T13:28:07.748Z,2.33
2022-09-30T13:30:42.267Z,2.22
2022-09-30T13:33:42.634Z,2.00
2022-09-30T13:36:29.755Z,1.98
2022-09-30T13:39:21.587Z,2.38
2022-09-30T13:42:10.947Z,1.90
2022-09-30T13:45:20.811Z,2.33
2022-09-30T13:48:17.422Z,1.95
2022-09-30T13:50:59.531Z,2.22
2022-09-30T13:56:36.176Z,2.20
2022-09-30T13:59:36.351Z,2.30
2022-09-30T14:02:46.108Z,1.77
2022-09-30T14:05:17.323Z,2.40
2022-09-30T14:08:09.003Z,2.10
2022-09-30T14:11:04.615Z,1.90
2022-09-30T14:14:00.164Z,1.80
2022-09-30T14:19:54.545Z,1.77
2022-09-30T14:22:31.298Z,1.75
2022-09-30T14:24:58.539Z,1.70
2022-09-30T14:27:53.886Z,1.70
2022-09-30T14:30:23.557Z,1.80
2022-09-30T14:33:07.300Z,1.92
2022-09-30T14:35:47.292Z,1.20
2022-09-30T14:38:29.888Z,1.70
2022-09-30T14:41:16.690Z,1.65
2022-09-30T14:46:43.054Z,1.55
2022-09-30T14:49:16.660Z,1.50
2022-09-30T14:54:32.846Z,1.42
2022-09-30T14:57:03.092Z,1.60
2022-09-30T14:59:33.321Z,1.80
2022-09-30T15:02:18.621Z,1.73
2022-09-30T15:07:44.114Z,1.70
2022-09-30T15:10:23.668Z,1.45
2022-09-30T15:12:55.200Z,1.73
2022-09-30T15:15:38.292Z,1.67
2022-09-30T15:18:31.483Z,1.38
2022-09-30T15:21:14.731Z,1.40
2022-09-30T15:23:48.063Z,1.58
2022-09-30T15:26:20.975Z,1.40
2022-09-30T15:28:55.629Z,1.70
2022-09-30T15:31:27.366Z,1.38
2022-09-30T15:34:19.188Z,1.80
2022-09-30T15:37:11.955Z,1.60
2022-09-30T15:40:08.647Z,1.50
2022-09-30T15:43:06.491Z,1.50
2022-09-30T15:45:44.326Z,1.38
2022-09-30T15:48:35.396Z,1.50
2022-09-30T15:51:32.786Z,1.50
2022-09-30T15:54:18.656Z,2.47
2022-09-30T15:56:46.367Z,5.07
2022-09-30T15:59:19.326Z,5.60
2022-09-30T16:01:51.526Z,5.07
2022-09-30T16:04:28.277Z,5.57
2022-09-30T16:07:08.557Z,5.78
2022-09-30T16:09:47.704Z,5.78
2022-09-30T16:12:35.249Z,6.03
2022-09-30T16:15:16.534Z,6.60
2022-09-30T16:17:50.138Z,6.57
2022-09-30T16:20:26.743Z,7.18
2022-09-30T16:23:06.107Z,7.10
2022-09-30T16:25:44.141Z,7.28
2022-09-30T16:28:17.162Z,8.73
2022-09-30T16:30:54.365Z,11.02
2022-09-30T16:33:30.120Z,9.60
2022-09-30T16:36:07.433Z,10.05
2022-09-30T16:38:39.332Z,11.95
2022-09-30T16:41:13.151Z,12.00
2022-09-30T16:43:40.475Z,11.68
2022-09-30T16:46:10.155Z,10.73
2022-09-30T16:48:41.409Z,13.20
2022-09-30T16:51:26.110Z,13.60
2022-09-30T16:53:56.200Z,13.52
2022-09-30T16:56:36.460Z,13.68
2022-09-30T16:59:11.267Z,12.13
2022-09-30T17:01:41.717Z,11.45
2022-09-30T17:04:16.634Z,11.43
2022-09-30T17:06:47.402Z,10.55
2022-09-30T17:09:19.871Z,10.90
2022-09-30T17:11:56.391Z,10.07
2022-09-30T17:14:27.212Z,12.05
2022-09-30T17:16:57.804Z,16.25
2022-09-30T17:19:34.037Z,13.85
2022-09-30T17:22:07.286Z,10.93
2022-09-30T17:24:43.692Z,10.00
2022-09-30T17:27:11.508Z,9.77
2022-09-30T17:29:42.307Z,8.93
2022-09-30T17:32:09.589Z,8.75
2022-09-30T17:34:36.606Z,9.35
2022-09-30T17:39:48.658Z,9.52
2022-09-30T17:42:37.695Z,10.18
2022-09-30T17:45:07.871Z,13.43
2022-09-30T17:47:41.604Z,13.20
2022-09-30T17:50:19.420Z,11.30
2022-09-30T17:52:50.450Z,9.90
2022-09-30T17:55:26.446Z,9.82
2022-09-30T17:57:56.650Z,9.85
2022-09-30T18:00:27.452Z,10.57
2022-09-30T18:03:04.841Z,10.13
2022-09-30T18:05:38.774Z,11.15
2022-09-30T18:08:13.069Z,16.52
2022-09-30T18:10:46.284Z,18.85
2022-09-30T18:13:16.539Z,17.98
2022-09-30T18:15:50.621Z,15.23
2022-09-30T18:18:26.539Z,13.65
2022-09-30T18:21:02.559Z,14.00
2022-09-30T18:23:54.335Z,22.05
2022-09-30T18:26:33.348Z,21.38
2022-09-30T18:29:11.092Z,20.13
2022-09-30T18:31:49.925Z,17.63
2022-09-30T18:34:21.789Z,14.43
2022-09-30T18:37:07.230Z,19.10
2022-09-30T18:39:46.236Z,16.65
2022-09-30T18:42:23.143Z,16.50
2022-09-30T18:44:52.244Z,18.50
2022-09-30T18:47:23.942Z,20.20
2022-09-30T18:49:56.412Z,26.00
2022-09-30T18:52:28.571Z,24.55
2022-09-30T18:55:11.273Z,28.17
2022-09-30T18:57:42.913Z,28.45
2022-09-30T19:00:17.315Z,28.73
2022-09-30T19:02:54.613Z,28.02
2022-09-30T19:05:39.583Z,24.95
2022-09-30T19:08:12.189Z,24.60
2022-09-30T19:10:48.432Z,26.63
2022-09-30T19:13:31.520Z,26.08
2022-09-30T19:16:11.540Z,26.30
2022-09-30T19:18:42.473Z,28.85
2022-09-30T19:21:27.768Z,30.23
2022-09-30T19:24:01.538Z,36.83
